createdAt,value
2023-03-21T00:00:36.878Z,95362.00
2023-03-21T03:44:34.043Z,95239.00
2023-03-21T06:56:42.300Z,95260.00
2023-03-21T08:16:42.456Z,95250.00
2023-03-21T08:24:42.455Z,95244.00
2023-03-21T08:28:42.398Z,95239.00
2023-03-21T08:32:42.415Z,95235.00
2023-03-21T08:36:43.040Z,95229.00
2023-03-21T08:40:42.949Z,95225.00
2023-03-21T08:44:42.930Z,95227.00
2023-03-21T08:48:42.937Z,95227.00
2023-03-21T08:52:42.940Z,95225.00
2023-03-21T08:56:42.966Z,95221.00
2023-03-21T09:04:43.035Z,95227.00
2023-03-21T09:08:51.431Z,95223.00
2023-03-21T09:12:43.939Z,95219.00
2023-03-21T09:16:49.458Z,95215.00
2023-03-21T09:20:43.087Z,95217.00
2023-03-21T09:24:42.961Z,95217.00
2023-03-21T09:28:42.483Z,95213.00
2023-03-21T09:32:42.447Z,95207.00
2023-03-21T09:36:42.486Z,95205.00
2023-03-21T09:44:42.488Z,95197.00
2023-03-21T09:48:54.380Z,95191.00
2023-03-21T09:52:42.487Z,95187.00
2023-03-21T09:56:42.485Z,95178.00
2023-03-21T10:00:42.529Z,95172.00
2023-03-21T10:04:42.529Z,95170.00
2023-03-21T10:08:42.477Z,95168.00
2023-03-21T10:12:43.484Z,95164.00
2023-03-21T10:16:42.491Z,95160.00
2023-03-21T10:20:42.473Z,95146.00
2023-03-21T10:24:42.458Z,95144.00
2023-03-21T10:28:52.822Z,95144.00
2023-03-21T10:32:43.114Z,95139.00
2023-03-21T10:36:42.473Z,95131.00
2023-03-21T10:44:42.497Z,95127.00
2023-03-21T10:48:42.528Z,95135.00
2023-03-21T10:52:42.478Z,95133.00
2023-03-21T10:56:42.476Z,95129.00
2023-03-21T11:00:43.017Z,95125.00
2023-03-21T11:04:42.507Z,95123.00
2023-03-21T11:08:42.484Z,95119.00
2023-03-21T17:16:46.240Z,94866.00
2023-03-21T17:20:45.486Z,94868.00
2023-03-21T17:24:45.560Z,94874.00
2023-03-21T17:28:45.690Z,94872.00
2023-03-21T17:32:45.721Z,94880.00
2023-03-21T17:36:45.797Z,94882.00
2023-03-21T17:40:45.921Z,94882.00
2023-03-21T17:44:46.074Z,94886.00
2023-03-21T17:48:46.674Z,94888.00
2023-03-21T17:52:46.381Z,94897.00
2023-03-21T17:56:46.667Z,94897.00
2023-03-21T18:00:46.714Z,94890.00
2023-03-21T18:04:47.728Z,94899.00
2023-03-21T18:08:47.010Z,94901.00
2023-03-21T18:12:47.179Z,94905.00
2023-03-21T18:16:47.586Z,94907.00
2023-03-21T18:20:53.488Z,94919.00
2023-03-21T18:24:47.515Z,94917.00
2023-03-21T18:29:09.269Z,94921.00
2023-03-21T18:36:49.168Z,94927.00
2023-03-21T18:40:47.798Z,94933.00
2023-03-21T18:48:47.965Z,94937.00
2023-03-21T22:48:50.968Z,95013.00
2023-03-21T22:52:51.141Z,95011.00
2023-03-21T22:56:51.390Z,95013.00
2023-03-21T23:00:51.639Z,95009.00
2023-03-21T23:04:51.778Z,95013.00
2023-03-21T23:08:51.947Z,95013.00
2023-03-21T23:12:52.200Z,95013.00
2023-03-21T23:16:52.350Z,95015.00
2023-03-21T23:20:52.569Z,95013.00
2023-03-21T23:24:52.736Z,95011.00
2023-03-21T23:28:52.942Z,95013.00
